Time;durP1;ratioP1;P1;durP2;ratioP2;P2;SDS_P1;SDS_P2;PMS_P1;PMS_P2;Temp;Humidity;BMP_temperature;BMP_pressure;BME280_temperature;BME280_humidity;BME280_pressure;Samples;Min_cycle;Max_cycle;Signal;HPM_P1;HPM_P2
2021/10/09 00:00:22;;;;;;;;;;;13.00;99.90;;;;;;8400020;28;19920;-72
2021/10/09 00:04:24;;;;;;;;;;;13.00;99.90;;;;;;8383661;28;19950;-72
2021/10/09 00:08:26;;;;;;;;;;;13.00;99.90;;;;;;8383386;28;19921;-72
2021/10/09 00:12:28;;;;;;;;;;;12.90;99.90;;;;;;8368859;28;19939;-72
2021/10/09 00:16:29;;;;;;;;;;;12.90;99.90;;;;;;8382233;28;20010;-72
2021/10/09 00:20:31;;;;;;;;;;;12.90;99.90;;;;;;8381701;28;19925;-72
2021/10/09 00:24:33;;;;;;;;;;;12.80;99.90;;;;;;8383339;28;25061;-73
2021/10/09 00:28:35;;;;;;;;;;;12.80;99.90;;;;;;8380467;28;20334;-72
2021/10/09 00:32:38;;;;;;;;;;;12.80;99.90;;;;;;8384547;28;19939;-72
2021/10/09 00:36:39;;;;;;;;;;;12.70;99.90;;;;;;8388775;28;19920;-73
2021/10/09 00:40:41;;;;;;;;;;;12.70;99.90;;;;;;8377548;28;19924;-72
2021/10/09 00:44:42;;;;;;;;;;;12.70;99.90;;;;;;8386428;28;19931;-72
2021/10/09 00:48:45;;;;;;;;;;;12.60;99.90;;;;;;8383038;28;20359;-72
2021/10/09 00:52:47;;;;;;;;;;;12.60;99.90;;;;;;8381798;28;20360;-73
2021/10/09 00:56:51;;;;;;;;;;;12.60;99.90;;;;;;8385998;28;19920;-73
2021/10/09 01:00:53;;;;;;;;;;;12.60;99.90;;;;;;8382999;28;19924;-72
2021/10/09 01:04:55;;;;;;;;;;;12.60;99.90;;;;;;8381908;28;19920;-72
2021/10/09 01:08:57;;;;;;;;;;;12.50;99.90;;;;;;8380967;28;19920;-72
2021/10/09 01:13:03;;;;;;;;;;;12.50;99.90;;;;;;8382326;28;19921;-72
2021/10/09 01:17:04;;;;;;;;;;;12.50;99.90;;;;;;8381823;28;19924;-72
2021/10/09 01:21:06;;;;;;;;;;;12.40;99.90;;;;;;8374182;28;19971;-72
2021/10/09 01:25:08;;;;;;;;;;;12.40;99.90;;;;;;8383686;28;19928;-72
2021/10/09 01:29:12;;;;;;;28.92;17.17;;;12.40;99.90;;;;;;8384426;28;19924;-72
2021/10/09 01:33:14;;;;;;;;;;;12.40;99.90;;;;;;8385410;28;20048;-73
2021/10/09 01:37:16;;;;;;;;;;;12.40;99.90;;;;;;8407767;28;19924;-72
2021/10/09 01:41:18;;;;;;;;;;;12.30;99.90;;;;;;8375535;28;25057;-72
2021/10/09 01:45:19;;;;;;;;;;;12.30;99.90;;;;;;8394267;28;20046;-73
2021/10/09 01:49:21;;;;;;;28.47;16.87;;;12.30;99.90;;;;;;8388090;28;19989;-72
2021/10/09 01:53:23;;;;;;;27.27;17.65;;;12.30;99.90;;;;;;8375493;28;20040;-72
2021/10/09 01:57:25;;;;;;;27.48;17.95;;;12.30;99.90;;;;;;8388442;28;20052;-72
2021/10/09 02:01:27;;;;;;;28.20;17.05;;;12.20;99.90;;;;;;8385078;28;20052;-72
2021/10/09 02:05:32;;;;;;;;;;;12.20;99.90;;;;;;8386481;28;19939;-72
2021/10/09 02:09:33;;;;;;;;;;;12.20;99.90;;;;;;8374531;28;19984;-72
2021/10/09 02:26:35;;;;;;;;;;;12.10;99.90;;;;;;8386116;28;20386;-72
2021/10/09 02:30:38;;;;;;;;;;;12.10;99.90;;;;;;8378406;28;20347;-72
2021/10/09 02:34:40;;;;;;;;;;;12.10;99.90;;;;;;8387779;28;19920;-72
2021/10/09 02:38:42;;;;;;;;;;;12.10;99.90;;;;;;8382927;28;19928;-72
2021/10/09 02:42:43;;;;;;;;;;;12.00;99.90;;;;;;8383126;28;19920;-72
2021/10/09 02:46:45;;;;;;;;;;;12.00;99.90;;;;;;8382851;28;19920;-72
2021/10/09 02:50:47;;;;;;;;;;;12.00;99.90;;;;;;8386917;28;19928;-72
2021/10/09 02:54:49;;;;;;;;;;;12.00;99.90;;;;;;8388570;28;20363;-72
2021/10/09 02:58:50;;;;;;;;;;;11.90;99.90;;;;;;8388575;28;20022;-72
2021/10/09 03:02:52;;;;;;;;;;;11.90;99.90;;;;;;8384181;28;19955;-72
2021/10/09 03:06:54;;;;;;;;;;;11.90;99.90;;;;;;8382361;28;19982;-72
2021/10/09 03:10:56;;;;;;;;;;;11.90;99.90;;;;;;8388190;28;19973;-72
2021/10/09 03:14:57;;;;;;;;;;;11.80;99.90;;;;;;8383841;28;20267;-72
2021/10/09 03:18:59;;;;;;;;;;;11.80;99.90;;;;;;8386932;28;19924;-72
2021/10/09 03:23:00;;;;;;;;;;;11.80;99.90;;;;;;8360357;28;19920;-72
2021/10/09 03:27:02;;;;;;;;;;;11.80;99.90;;;;;;8388569;28;20283;-72
2021/10/09 03:31:04;;;;;;;;;;;11.80;99.90;;;;;;8378850;28;20363;-72
2021/10/09 03:35:06;;;;;;;;;;;11.70;99.90;;;;;;8368658;28;20073;-72
2021/10/09 03:39:11;;;;;;;;;;;11.70;99.90;;;;;;8381635;28;19928;-72
2021/10/09 03:43:17;;;;;;;;;;;11.70;99.90;;;;;;8378498;28;19920;-73
2021/10/09 03:56:01;;;;;;;;;;;11.70;99.90;;;;;;8387847;28;20000;-73
2021/10/09 04:00:07;;;;;;;;;;;11.60;99.90;;;;;;8386352;28;19929;-72
2021/10/09 04:04:09;;;;;;;;;;;11.60;99.90;;;;;;8399385;28;19924;-73
2021/10/09 04:08:10;;;;;;;;;;;11.60;99.90;;;;;;8364985;28;19928;-73
2021/10/09 04:12:12;;;;;;;;;;;11.50;99.90;;;;;;8388641;28;19944;-73
2021/10/09 04:16:14;;;;;;;;;;;11.50;99.90;;;;;;8384178;28;19920;-73
2021/10/09 04:20:15;;;;;;;;;;;11.50;99.90;;;;;;8381464;28;19939;-73
2021/10/09 04:24:19;;;;;;;;;;;11.50;99.90;;;;;;8382072;28;20332;-72
2021/10/09 04:28:24;;;;;;;;;;;11.40;99.90;;;;;;8380216;28;20015;-72
2021/10/09 04:32:26;;;;;;;;;;;11.40;99.90;;;;;;8387141;28;19957;-72
2021/10/09 04:36:27;;;;;;;;;;;11.40;99.90;;;;;;8387316;28;20000;-73
2021/10/09 04:40:29;;;;;;;;;;;11.40;99.90;;;;;;8379757;28;19924;-73
2021/10/09 04:44:31;;;;;;;;;;;11.30;99.90;;;;;;8380657;28;19932;-73
2021/10/09 04:48:33;;;;;;;;;;;11.30;99.90;;;;;;8386437;28;20380;-72
2021/10/09 04:52:34;;;;;;;;;;;11.30;99.90;;;;;;8385061;28;20291;-73
2021/10/09 04:56:36;;;;;;;;;;;11.30;99.90;;;;;;8377640;28;20303;-73
2021/10/09 05:00:38;;;;;;;;;;;11.20;99.90;;;;;;8383903;28;19924;-72
2021/10/09 05:04:39;;;;;;;;;;;11.20;99.90;;;;;;8364538;28;19920;-72
2021/10/09 05:08:41;;;;;;;;;;;11.20;99.90;;;;;;8387989;28;20287;-72
2021/10/09 05:12:43;;;;;;;;;;;11.20;99.90;;;;;;8390794;28;19929;-72
2021/10/09 05:16:44;;;;;;;;;;;11.10;99.90;;;;;;8382724;28;20018;-72
2021/10/09 05:20:46;;;;;;;;;;;11.10;99.90;;;;;;8386891;28;20280;-73
2021/10/09 05:24:52;;;;;;;;;;;11.00;99.90;;;;;;8389533;28;19932;-72
2021/10/09 05:28:55;;;;;;;;;;;10.90;99.90;;;;;;8392896;28;20260;-72
2021/10/09 05:33:13;;;;;;;;;;;10.90;99.90;;;;;;8393229;28;20010;-72
2021/10/09 05:37:14;;;;;;;;;;;10.80;99.90;;;;;;8389524;28;19921;-73
2021/10/09 05:41:16;;;;;;;;;;;10.80;99.90;;;;;;8389809;28;20351;-72
2021/10/09 05:45:18;;;;;;;;;;;10.80;99.90;;;;;;8377158;28;19974;-72
2021/10/09 05:49:19;;;;;;;;;;;10.70;99.90;;;;;;8369642;28;20022;-72
2021/10/09 05:57:55;;;;;;;;;;;10.70;99.90;;;;;;8389801;28;19943;-72
2021/10/09 06:32:41;;;;;;;;;;;10.60;99.90;;;;;;8393845;28;19921;-72
2021/10/09 07:02:28;;;;;;;;;;;10.90;99.90;;;;;;8394530;28;19970;-72
2021/10/09 07:06:31;;;;;;;;;;;10.90;99.90;;;;;;8390152;28;19921;-72
2021/10/09 07:10:33;;;;;;;;;;;11.00;99.90;;;;;;8385255;28;20346;-73
2021/10/09 07:14:35;;;;;;;;;;;11.00;99.90;;;;;;8387556;28;19974;-72
2021/10/09 07:18:37;;;;;;;;;;;11.10;99.90;;;;;;8379991;28;19926;-72
2021/10/09 07:22:38;;;;;;;;;;;11.10;99.90;;;;;;8365121;28;19924;-72
2021/10/09 07:26:51;;;;;;;;;;;11.20;99.90;;;;;;8354517;28;19928;-72
2021/10/09 07:30:53;;;;;;;;;;;11.20;99.90;;;;;;8352980;28;20272;-72
2021/10/09 07:34:55;;;;;;;;;;;11.30;99.90;;;;;;8355603;28;19920;-72
2021/10/09 07:38:56;;;;;;;;;;;11.30;99.90;;;;;;8368226;28;19924;-72
2021/10/09 07:42:58;;;;;;;;;;;11.40;99.90;;;;;;8360314;28;20314;-72
2021/10/09 07:47:01;;;;;;;;;;;11.50;99.90;;;;;;8354877;28;20332;-72
2021/10/09 07:51:05;;;;;;;;;;;11.50;99.90;;;;;;8354457;28;20382;-72
2021/10/09 07:55:08;;;;;;;;;;;11.60;99.90;;;;;;8357013;28;19920;-72
2021/10/09 07:59:10;;;;;;;;;;;11.60;99.90;;;;;;8374113;28;19921;-72
2021/10/09 08:03:12;;;;;;;;;;;11.70;99.90;;;;;;8353130;28;19932;-73
2021/10/09 08:07:13;;;;;;;;;;;11.80;99.90;;;;;;8358388;28;19929;-73
2021/10/09 08:11:15;;;;;;;;;;;11.80;99.90;;;;;;8351155;28;19948;-72
2021/10/09 08:15:22;;;;;;;;;;;11.90;99.90;;;;;;8351943;28;19943;-73
2021/10/09 08:19:24;;;;;;;;;;;11.90;99.90;;;;;;8352773;28;19932;-72
2021/10/09 08:23:29;;;;;;;;;;;12.00;99.90;;;;;;8357872;28;19925;-72
2021/10/09 08:40:32;;;;;;;;;;;12.40;99.90;;;;;;8352631;28;19990;-72
2021/10/09 08:44:34;;;;;;;;;;;12.50;99.90;;;;;;8350840;28;20329;-72
2021/10/09 08:48:43;;;;;;;;;;;12.60;99.90;;;;;;8368247;28;19975;-72
2021/10/09 08:53:00;;;;;;;;;;;12.70;99.90;;;;;;8356210;28;19925;-72
2021/10/09 08:57:11;;;;;;;;;;;12.80;99.90;;;;;;8360845;28;19974;-72
2021/10/09 09:01:24;;;;;;;;;;;12.90;99.90;;;;;;8352652;28;20753;-72
2021/10/09 09:05:47;;;;;;;;;;;13.10;99.90;;;;;;8354332;28;19920;-72
2021/10/09 09:25:26;;;;;;;;;;;13.20;99.90;;;;;;8351677;28;19920;-72
2021/10/09 09:27:34;;;;;;;;;;;13.50;99.90;;;;;;8354067;28;19933;-72
2021/10/09 09:31:47;;;;;;;;;;;13.70;99.90;;;;;;8350536;28;19928;-72
2021/10/09 09:40:01;;;;;;;;;;;14.20;99.90;;;;;;8357232;28;19924;-72
2021/10/09 09:44:09;;;;;;;;;;;14.30;99.90;;;;;;8360566;28;19947;-72
2021/10/09 09:48:10;;;;;;;;;;;14.50;99.90;;;;;;8359179;28;20376;-72
2021/10/09 09:52:12;;;;;;;;;;;14.60;99.90;;;;;;8371904;28;19921;-72
2021/10/09 09:56:15;;;;;;;;;;;14.60;99.90;;;;;;8375489;28;24082;-72
2021/10/09 10:00:16;;;;;;;;;;;14.70;99.90;;;;;;8360706;28;19924;-73
2021/10/09 10:04:19;;;;;;;;;;;14.70;99.90;;;;;;8355590;28;19921;-72
2021/10/09 10:08:20;;;;;;;;;;;14.70;99.90;;;;;;8360120;28;20363;-72
2021/10/09 10:12:23;;;;;;;;;;;14.80;99.90;;;;;;8357973;28;19932;-72
2021/10/09 10:16:25;;;;;;;;;;;14.90;99.90;;;;;;8358337;28;19940;-72
2021/10/09 10:20:48;;;;;;;;;;;15.10;99.90;;;;;;8351819;28;19982;-72
2021/10/09 10:24:50;;;;;;;;;;;15.10;99.90;;;;;;8351197;28;20391;-72
2021/10/09 10:28:54;;;;;;;;;;;15.20;99.90;;;;;;8359990;28;20261;-72
2021/10/09 10:32:57;;;;;;;;;;;15.40;99.90;;;;;;8355783;28;20310;-72
2021/10/09 10:36:59;;;;;;;;;;;15.50;99.90;;;;;;8356787;28;19969;-72
2021/10/09 10:41:05;;;;;;;;;;;15.50;99.90;;;;;;8357383;28;20794;-73
2021/10/09 10:45:19;;;;;;;;;;;15.70;99.90;;;;;;8354460;28;19921;-73
2021/10/09 10:49:41;;;;;;;;;;;15.90;99.90;;;;;;8353806;28;19985;-72
2021/10/09 10:58:18;;;;;;;;;;;16.10;99.90;;;;;;8337186;28;19924;-72
2021/10/09 11:02:30;;;;;;;;;;;16.10;99.90;;;;;;8333491;28;19921;-72
2021/10/09 11:06:32;;;;;;;;;;;16.10;99.90;;;;;;8350326;28;20403;-72
2021/10/09 11:10:44;;;;;;;;;;;16.20;99.90;;;;;;8357424;28;20387;-72
2021/10/09 11:14:46;;;;;;;;;;;16.30;99.90;;;;;;8356045;28;20018;-72
2021/10/09 11:18:48;;;;;;;;;;;16.40;99.90;;;;;;8352948;28;19924;-72
2021/10/09 11:22:51;;;;;;;;;;;16.30;99.90;;;;;;8355462;28;19928;-72
2021/10/09 11:26:53;;;;;;;;;;;16.30;99.90;;;;;;8356555;28;20001;-72
2021/10/09 11:30:55;;;;;;;;;;;16.30;99.90;;;;;;8359830;28;19935;-72
2021/10/09 11:34:57;;;;;;;;;;;16.40;99.90;;;;;;8360496;28;21083;-72
2021/10/09 11:39:07;;;;;;;;;;;16.40;99.90;;;;;;8348598;28;19928;-72
2021/10/09 11:43:33;;;;;;;;;;;16.50;99.90;;;;;;8367019;28;19993;-72
2021/10/09 11:56:41;;;;;;;;;;;16.80;99.90;;;;;;8357805;28;19920;-72
2021/10/09 12:00:43;;;;;;;;;;;16.90;99.90;;;;;;8356707;28;20376;-72
2021/10/09 12:04:57;;;;;;;;;;;16.90;99.90;;;;;;8355241;28;19929;-72
2021/10/09 12:09:00;;;;;;;;;;;17.00;99.90;;;;;;8361533;28;19921;-72
2021/10/09 12:13:03;;;;;;;;;;;17.00;99.90;;;;;;8352664;28;19954;-72
2021/10/09 12:17:05;;;;;;;;;;;17.10;99.90;;;;;;8347538;28;20006;-72
2021/10/09 12:21:07;;;;;;;;;;;17.10;99.90;;;;;;8346536;28;19929;-72
2021/10/09 12:25:26;;;;;;;;;;;17.10;99.90;;;;;;8365822;28;20391;-72
2021/10/09 12:29:29;;;;;;;;;;;17.20;99.90;;;;;;8362841;28;19925;-72
2021/10/09 12:33:35;;;;;;;;;;;17.20;99.90;;;;;;8358663;28;19921;-72
2021/10/09 12:37:38;;;;;;;;;;;17.20;99.90;;;;;;8365305;28;20307;-73
2021/10/09 12:41:40;;;;;;;;;;;17.20;99.90;;;;;;8362817;28;19956;-71
2021/10/09 12:45:42;;;;;;;;;;;17.30;99.90;;;;;;8358343;28;19925;-72
2021/10/09 12:49:44;;;;;;;;;;;17.30;99.90;;;;;;8363161;28;20387;-73
2021/10/09 12:53:45;;;;;;;;;;;17.40;99.90;;;;;;8364054;28;19947;-72
2021/10/09 12:57:49;;;;;;;;;;;17.40;99.90;;;;;;8379062;28;20246;-73
2021/10/09 13:01:50;;;;;;;;;;;17.40;99.90;;;;;;8364354;28;19939;-72
2021/10/09 13:05:52;;;;;;;;;;;17.40;99.90;;;;;;8366400;28;19927;-72
2021/10/09 13:09:54;;;;;;;;;;;17.50;99.90;;;;;;8367295;28;19921;-72
2021/10/09 13:13:57;;;;;;;;;;;17.50;99.90;;;;;;8368439;28;19920;-72
2021/10/09 13:17:58;;;;;;;;;;;17.50;99.90;;;;;;8364058;28;19924;-72
2021/10/09 13:22:00;;;;;;;;;;;17.50;99.90;;;;;;8357594;28;19921;-72
2021/10/09 13:26:02;;;;;;;;;;;17.50;99.90;;;;;;8354357;28;19921;-72
2021/10/09 13:30:04;;;;;;;;;;;17.60;99.90;;;;;;8359537;28;19928;-72
2021/10/09 13:34:18;;;;;;;;;;;17.60;99.90;;;;;;8373151;28;19928;-72
2021/10/09 13:38:20;;;;;;;;;;;17.70;99.90;;;;;;8362861;28;19921;-72
2021/10/09 13:42:23;;;;;;;;;;;17.70;99.90;;;;;;8371494;28;20300;-72
2021/10/09 13:46:27;;;;;;;;;;;17.70;99.90;;;;;;8357834;28;19939;-72
2021/10/09 13:50:35;;;;;;;;;;;17.80;99.90;;;;;;8359241;28;20233;-72
2021/10/09 13:54:37;;;;;;;;;;;17.80;99.90;;;;;;8356671;28;19920;-72
2021/10/09 13:58:39;;;;;;;;;;;17.90;99.90;;;;;;8358751;28;20415;-72
2021/10/09 14:02:41;;;;;;;;;;;17.90;99.90;;;;;;8359478;28;19927;-72
2021/10/09 14:06:43;;;;;;;;;;;17.90;99.90;;;;;;8360136;28;19971;-72
2021/10/09 14:10:45;;;;;;;;;;;17.90;99.90;;;;;;8356700;28;19933;-72
2021/10/09 14:14:47;;;;;;;;;;;18.00;99.90;;;;;;8355917;28;19924;-72
2021/10/09 14:18:48;;;;;;;;;;;18.20;99.90;;;;;;8360463;28;19925;-72
2021/10/09 14:22:50;;;;;;;;;;;18.30;99.90;;;;;;8372640;28;19928;-72
2021/10/09 14:26:52;;;;;;;;;;;18.30;99.90;;;;;;8357714;28;19928;-73
2021/10/09 14:30:53;;;;;;;;;;;18.30;99.90;;;;;;8355659;28;19931;-72
2021/10/09 14:34:55;;;;;;;;;;;18.30;99.90;;;;;;8354590;28;20341;-72
2021/10/09 14:38:58;;;;;;;;;;;18.30;99.90;;;;;;8354933;28;19921;-72
2021/10/09 14:43:00;;;;;;;;;;;18.30;99.90;;;;;;8354389;28;19924;-72
2021/10/09 14:51:32;;;;;;;;;;;18.20;99.90;;;;;;8355074;28;20356;-72
2021/10/09 15:21:19;;;;;;;;;;;17.80;99.90;;;;;;8353743;28;19920;-72
2021/10/09 15:25:21;;;;;;;;;;;17.80;99.90;;;;;;8356442;28;19932;-72
2021/10/09 15:29:22;;;;;;;;;;;17.80;99.90;;;;;;8357803;28;19924;-73
2021/10/09 15:33:24;;;;;;;;;;;17.70;99.90;;;;;;8352306;28;19972;-72
2021/10/09 15:37:26;;;;;;;;;;;17.70;99.90;;;;;;8358059;28;19963;-72
2021/10/09 15:41:28;;;;;;;;;;;17.60;99.90;;;;;;8354904;28;19920;-72
2021/10/09 15:45:29;;;;;;;;;;;17.60;99.90;;;;;;8369152;28;19931;-72
2021/10/09 15:49:31;;;;;;;;;;;17.50;99.90;;;;;;8357864;28;19974;-72
2021/10/09 15:53:33;;;;;;;;;;;17.50;99.90;;;;;;8363118;28;20429;-72
2021/10/09 15:57:34;;;;;;;;;;;17.50;99.90;;;;;;8365024;28;19925;-72
2021/10/09 16:01:36;;;;;;;;;;;17.50;99.90;;;;;;8355674;28;20287;-72
2021/10/09 16:05:38;;;;;;;;;;;17.40;99.90;;;;;;8369237;28;20304;-73
2021/10/09 16:09:40;;;;;;;;;;;17.40;99.90;;;;;;8353600;28;19950;-73
2021/10/09 16:13:42;;;;;;;;;;;17.30;99.90;;;;;;8356598;28;19974;-72
2021/10/09 16:17:43;;;;;;;;;;;17.20;99.90;;;;;;8369783;28;19921;-72
2021/10/09 16:21:48;;;;;;;;;;;17.10;99.90;;;;;;8352742;28;20748;-73
2021/10/09 16:25:50;;;;;;;;;;;17.00;99.90;;;;;;8359116;28;19943;-73
2021/10/09 16:29:52;;;;;;;;;;;16.80;99.90;;;;;;8356702;28;19925;-73
2021/10/09 16:33:53;;;;;;;;;;;16.70;99.90;;;;;;8369588;28;19920;-72
2021/10/09 16:37:55;;;;;;;;;;;16.60;99.90;;;;;;8369317;28;19921;-72
2021/10/09 16:41:56;;;;;;;;;;;16.40;99.90;;;;;;8358524;28;25067;-72
2021/10/09 16:46:11;;;;;;;;;;;16.30;99.90;;;;;;8352997;28;19935;-73
2021/10/09 16:50:13;;;;;;;;;;;16.20;99.90;;;;;;8372176;28;20046;-73
2021/10/09 16:54:15;;;;;;;;;;;16.00;99.90;;;;;;8359546;28;19928;-73
2021/10/09 16:58:17;;;;;;;;;;;15.90;99.90;;;;;;8359074;28;19996;-72
2021/10/09 17:02:18;;;;;;;;;;;15.80;99.90;;;;;;8359696;28;19935;-72
2021/10/09 17:06:21;;;;;;;;;;;15.70;99.90;;;;;;8359795;28;19928;-72
2021/10/09 17:10:23;;;;;;;;;;;15.50;99.90;;;;;;8363551;28;19928;-72
2021/10/09 17:14:25;;;;;;;;;;;15.40;99.90;;;;;;8363988;28;19928;-72
2021/10/09 17:18:26;;;;;;;;;;;15.30;99.90;;;;;;8375895;28;19969;-73
2021/10/09 17:22:28;;;;;;;;;;;15.20;99.90;;;;;;8358776;28;24143;-72
2021/10/09 17:26:30;;;;;;;;;;;15.10;99.90;;;;;;8363542;28;19921;-72
2021/10/09 17:30:32;;;;;;;;;;;15.00;99.90;;;;;;8361246;28;20368;-73
2021/10/09 17:34:36;;;;;;;;;;;14.90;99.90;;;;;;8354906;28;20498;-73
2021/10/09 17:38:38;;;;;;;;;;;14.80;99.90;;;;;;8358091;28;19932;-73
2021/10/09 17:42:40;;;;;;;;;;;14.70;99.90;;;;;;8358708;28;19920;-72
2021/10/09 17:46:41;;;;;;;;;;;14.70;99.90;;;;;;8356317;28;20054;-73
2021/10/09 17:50:45;;;;;;;;;;;14.70;99.90;;;;;;8355659;28;20058;-72
2021/10/09 17:54:48;;;;;;;;;;;14.60;99.90;;;;;;8356412;28;20285;-72
2021/10/09 17:58:50;;;;;;;;;;;14.50;99.90;;;;;;8357720;28;19924;-73
2021/10/09 18:02:51;;;;;;;;;;;14.50;99.90;;;;;;8358838;28;25083;-72
2021/10/09 18:06:53;;;;;;;;;;;14.40;99.90;;;;;;8359264;28;20251;-72
2021/10/09 18:10:55;;;;;;;;;;;14.30;99.90;;;;;;8338412;28;19920;-72
2021/10/09 18:14:56;;;;;;;;;;;14.30;99.90;;;;;;8324319;28;19929;-73
2021/10/09 18:18:58;;;;;;;23.23;14.83;;;14.20;99.90;;;;;;8324504;28;20335;-72
2021/10/09 18:23:01;;;;;;;;;;;14.10;99.90;;;;;;8329000;28;19928;-73
2021/10/09 18:27:03;;;;;;;;;;;14.10;99.90;;;;;;8334948;28;19940;-73
2021/10/09 18:31:05;;;;;;;;;;;14.00;99.90;;;;;;8334107;28;19928;-72
2021/10/09 18:35:07;;;;;;;;;;;13.90;99.90;;;;;;8329666;28;19939;-73
2021/10/09 18:39:09;;;;;;;;;;;13.90;99.90;;;;;;8333521;28;19968;-72
2021/10/09 18:43:10;;;;;;;;;;;13.80;99.90;;;;;;8333132;28;20289;-72
2021/10/09 18:47:13;;;;;;;;;;;13.70;99.90;;;;;;8333792;28;20021;-73
2021/10/09 18:51:14;;;;;;;;;;;13.70;99.90;;;;;;8330319;28;19928;-73
2021/10/09 18:55:16;;;;;;;;;;;13.60;99.90;;;;;;8342848;28;20367;-72
2021/10/09 18:59:18;;;;;;;;;;;13.60;99.90;;;;;;8328659;28;19956;-72
2021/10/09 19:03:19;;;;;;;;;;;13.50;99.90;;;;;;8331901;28;19928;-72
2021/10/09 19:07:21;;;;;;;;;;;13.40;99.90;;;;;;8335131;28;19928;-73
2021/10/09 19:11:22;;;;;;;;;;;13.40;99.90;;;;;;8357126;28;20765;-73
2021/10/09 19:15:25;;;;;;;;;;;13.30;99.90;;;;;;8359757;28;19921;-73
2021/10/09 19:19:27;;;;;;;;;;;13.30;99.90;;;;;;8349851;28;19929;-72
2021/10/09 19:23:30;;;;;;;;;;;13.30;99.90;;;;;;8353957;28;19921;-73
2021/10/09 19:27:32;;;;;;;;;;;13.20;99.90;;;;;;8385352;28;19927;-72
2021/10/09 19:31:34;;;;;;;;;;;13.20;99.90;;;;;;8365319;28;19993;-73
2021/10/09 19:35:45;;;;;;;;;;;13.10;99.90;;;;;;8365625;28;19998;-73
2021/10/09 19:39:47;;;;;;;;;;;13.00;99.90;;;;;;8368609;28;19924;-73
2021/10/09 19:43:52;;;;;;;;;;;13.00;99.90;;;;;;8369637;28;20368;-73
2021/10/09 19:48:03;;;;;;;;;;;12.90;99.90;;;;;;8365054;28;19920;-72
2021/10/09 19:56:11;;;;;;;;;;;12.80;99.90;;;;;;8368738;28;19924;-73
2021/10/09 20:00:13;;;;;;;;;;;12.70;99.90;;;;;;8366105;28;19954;-73
2021/10/09 20:04:14;;;;;;;;;;;12.70;99.90;;;;;;8365074;28;20009;-73
2021/10/09 20:08:16;;;;;;;;;;;12.60;99.90;;;;;;8366434;28;19936;-74
2021/10/09 20:16:25;;;;;;;;;;;12.50;99.90;;;;;;8371004;28;19920;-72
2021/10/09 20:20:30;;;;;;;;;;;12.50;99.90;;;;;;8364128;28;19941;-73
2021/10/09 20:24:32;;;;;;;;;;;12.40;99.90;;;;;;8365685;28;20620;-72
2021/10/09 20:28:34;;;;;;;;;;;12.40;99.90;;;;;;8367143;28;19935;-72
2021/10/09 20:32:35;;;;;;;;;;;12.40;99.90;;;;;;8369198;28;19969;-72
2021/10/09 20:36:37;;;;;;;;;;;12.30;99.90;;;;;;8367357;28;20384;-72
2021/10/09 20:40:42;;;;;;;;;;;12.20;99.90;;;;;;8365937;28;19925;-73
2021/10/09 20:44:44;;;;;;;;;;;12.20;99.90;;;;;;8368286;28;22166;-73
2021/10/09 20:48:46;;;;;;;20.63;12.60;;;12.10;99.90;;;;;;8368331;28;20372;-73
2021/10/09 20:52:47;;;;;;;;;;;12.10;99.90;;;;;;8367540;28;20124;-72
2021/10/09 20:56:49;;;;;;;;;;;12.10;99.90;;;;;;8369206;28;20311;-72
2021/10/09 21:00:51;;;;;;;;;;;12.00;99.90;;;;;;8365904;28;20383;-72
2021/10/09 21:04:52;;;;;;;;;;;12.00;99.90;;;;;;8379376;28;19921;-74
2021/10/09 21:08:56;;;;;;;;;;;12.00;99.90;;;;;;8367385;28;19932;-72
2021/10/09 21:13:04;;;;;;;;;;;11.90;99.90;;;;;;8386948;28;20061;-72
2021/10/09 21:25:46;;;;;;;;;;;11.80;99.90;;;;;;8388350;28;19921;-72
2021/10/09 21:29:48;;;;;;;;;;;11.80;99.90;;;;;;8385167;28;19931;-73
2021/10/09 21:33:50;;;;;;;;;;;11.70;99.90;;;;;;8379855;28;19982;-72
2021/10/09 21:38:05;;;;;;;;;;;11.70;99.90;;;;;;8379183;28;19920;-73
2021/10/09 21:42:07;;;;;;;;;;;11.60;99.90;;;;;;8376936;28;20455;-72
2021/10/09 21:46:09;;;;;;;;;;;11.50;99.90;;;;;;8381006;28;19929;-73
2021/10/09 21:50:10;;;;;;;;;;;11.50;99.90;;;;;;8380952;28;19924;-73
2021/10/09 21:54:13;;;;;;;;;;;11.40;99.90;;;;;;8390417;28;19924;-73
2021/10/09 21:58:19;;;;;;;;;;;11.40;99.90;;;;;;8388620;28;20265;-72
2021/10/09 22:02:24;;;;;;;;;;;11.30;99.90;;;;;;8395103;28;20352;-72
2021/10/09 22:19:54;;;;;;;;;;;11.30;99.90;;;;;;8385216;28;19920;-72
2021/10/09 22:32:55;;;;;;;;;;;11.00;99.90;;;;;;8393625;28;19924;-72
2021/10/09 22:36:48;;;;;;;;;;;11.00;99.90;;;;;;8386272;28;19935;-72
2021/10/09 22:40:50;;;;;;;;;;;10.90;99.90;;;;;;8393982;28;19920;-72
2021/10/09 22:44:52;;;;;;;;;;;10.90;99.90;;;;;;8393059;28;19974;-72
2021/10/09 22:48:53;;;;;;;;;;;10.80;99.90;;;;;;8412187;28;19920;-72
2021/10/09 22:52:55;;;;;;;;;;;10.80;99.90;;;;;;8395279;28;19920;-72
2021/10/09 22:56:57;;;;;;;;;;;10.80;99.90;;;;;;8386649;28;19920;-73
2021/10/09 23:00:58;;;;;;;;;;;10.80;99.90;;;;;;8388647;28;19924;-72
2021/10/09 23:05:00;;;;;;;;;;;10.70;99.90;;;;;;8387287;28;19920;-72
2021/10/09 23:09:02;;;;;;;;;;;10.60;99.90;;;;;;8389676;28;20360;-72
2021/10/09 23:13:04;;;;;;;;;;;10.60;99.90;;;;;;8392721;28;19920;-72
2021/10/09 23:17:06;;;;;;;;;;;10.50;99.90;;;;;;8402648;28;19920;-72
2021/10/09 23:21:08;;;;;;;;;;;10.50;99.90;;;;;;8377317;28;19924;-73
2021/10/09 23:25:09;;;;;;;;;;;10.40;99.90;;;;;;8392474;28;19920;-73
2021/10/09 23:29:11;;;;;;;;;;;10.40;99.90;;;;;;8374491;28;19920;-72
2021/10/09 23:33:13;;;;;;;;;;;10.40;99.90;;;;;;8391380;28;20379;-72
2021/10/09 23:37:15;;;;;;;;;;;10.30;99.90;;;;;;8384179;28;20356;-72
2021/10/09 23:41:22;;;;;;;;;;;10.30;99.90;;;;;;8382452;28;20660;-72
2021/10/09 23:45:23;;;;;;;23.03;14.07;;;10.30;99.90;;;;;;8389739;28;20283;-72
2021/10/09 23:49:25;;;;;;;21.52;12.93;;;10.20;99.90;;;;;;8383259;28;20040;-73
2021/10/09 23:53:27;;;;;;;14.77;10.20;;;10.20;99.90;;;;;;8390444;28;20048;-72
2021/10/09 23:57:28;;;;;;;16.92;11.13;;;10.10;99.90;;;;;;8388242;28;20048;-72
